SARM/MCS METAR and TAF weather

Enter ICAO airport designator
Station Type Date Time Source
SARM METAR 2019/01/17 07:15 UTC NOAA

SARM 170715Z 09003KT 9999 TS FEW050CB SCT100 24/23 Q1007


Station Type Date Time Source
SARM Decoded METAR 2019/01/17 07:15 UTC NOAA

Monte Caseros Aerodrome, Argentina (SARM) 30-16S 057-39W 54M
Jan 17, 2019 - 02:15 AM EST / 2019.01.17 0715 UTC
Wind: from the E (090 degrees) at 3 MPH (3 KT):0
Visibility: greater than 7 mile(s):0
Sky conditions: partly cloudy
Weather: thunder; Cumulonimbus clouds observed
Temperature: 75 F (24 C)
Dew Point: 73 F (23 C)
Relative Humidity: 94%
Pressure (altimeter): 29.74 in. Hg (1007 hPa)
ob: SARM 170715Z 09003KT 9999 TS FEW050CB SCT100 24/23 Q1007
cycle: 7

Station Type Date Time Source
SARM TAF UTC NOAA

Error!


Example: see airport list